Eau Claire, WI (54701)

12:38 AM CST on February 14, 2016 (GMT -0600)
Third Ward | | Change Station
CLOSE
Current Station
Personal Weather Station
Location: Eau Claire, WI
Elevation: 797 ft
Nearby Weather Stations

Elev 797 ft 44.80 °N, 91.49 °W | Updated 3 minutes ago

Partly Cloudy
Partly Cloudy
-3.6 °F
Feels Like -4 °F
N
0.0
Wind Variable Wind from North
Gusts 1.0 mph

Today
High -- | Low -- °F
--% Chance of Precip.
Yesterday
High -- | Low -- °F
Precip. -- in
Pressure 30.44 in
Visibility 10.0 miles
Clouds Clear
Windchill -4 °F
Dew Point -10 °F
Humidity 73%
Rainfall 0.00 in
Snow Depth Not available.
7:08 AM 5:32 PM
Waxing Crescent, 38% visible
METAR KEAU 140556Z AUTO 00000KT 10SM CLR M22/M26 A3035 RMK AO2 SLP307 T12221256 11156 21228 411331250 56016
Pressure 30.44 in
Visibility 10.0 miles
Clouds Clear
Windchill -4 °F
Dew Point -10 °F
Humidity 73%
Rainfall 0.00 in
Snow Depth Not available.
7:08 AM 5:32 PM
Waxing Crescent, 38% visible
METAR KEAU 140556Z AUTO 00000KT 10SM CLR M22/M26 A3035 RMK AO2 SLP307 T12221256 11156 21228 411331250 56016

10-Day Weather Forecast

Almanac

Astronomy

Feb. 14, 2016 Rise Set
Actual Time
Civil Twilight
Nautical Twilight
Astronomical Twilight
Moon
Length of Visible Light
Length of Day
Tomorrow will be .
, % of the Moon is Illuminated

Today's Extremes

State Highs State Lows

Community

WunderPhotos

Upload Photos

1,892,757 photos uploaded!

WunderBlog® & News

Nearby

Air Quality

  Air Quality AQ Index Pollutant
Not available.

Snow Depth

Station Depth Elevation

Earthquake Activity

City Distance Mag. Time & Date
Minimum magnitude displayed is 2.5.

Coastal Water Temperatures

Place Temperature

Stations

Nearby Weather Stations

Station Location Temp. Windchill Dew Point Humidity Wind Precip. Elev Updated Type
                   

Watches & Warnings

There are currently no watches in effect.